sensor_id;sensor_type;location;lat;lon;timestamp;P1;durP1;ratioP1;P2;durP2;ratioP2
43088;SDS011;28709;52.030;5.652;2023-03-29T00:00:20;9.55;;;3.30;;
43088;SDS011;28709;52.030;5.652;2023-03-29T00:02:45;3.28;;;1.80;;
43088;SDS011;28709;52.030;5.652;2023-03-29T00:05:12;4.38;;;2.00;;
43088;SDS011;28709;52.030;5.652;2023-03-29T00:07:39;3.70;;;1.85;;
43088;SDS011;28709;52.030;5.652;2023-03-29T00:10:06;2.55;;;1.63;;
43088;SDS011;28709;52.030;5.652;2023-03-29T00:12:34;7.05;;;2.08;;
43088;SDS011;28709;52.030;5.652;2023-03-29T00:15:00;4.70;;;1.90;;
43088;SDS011;28709;52.030;5.652;2023-03-29T00:17:27;3.72;;;2.28;;
43088;SDS011;28709;52.030;5.652;2023-03-29T00:19:54;4.68;;;2.15;;
43088;SDS011;28709;52.030;5.652;2023-03-29T00:22:20;3.38;;;2.13;;
43088;SDS011;28709;52.030;5.652;2023-03-29T00:24:46;9.63;;;2.22;;
43088;SDS011;28709;52.030;5.652;2023-03-29T00:27:13;5.82;;;2.70;;
43088;SDS011;28709;52.030;5.652;2023-03-29T00:29:40;4.38;;;2.78;;
43088;SDS011;28709;52.030;5.652;2023-03-29T00:32:06;5.07;;;2.22;;
43088;SDS011;28709;52.030;5.652;2023-03-29T00:34:31;4.13;;;2.25;;
43088;SDS011;28709;52.030;5.652;2023-03-29T00:37:00;6.50;;;2.40;;
43088;SDS011;28709;52.030;5.652;2023-03-29T00:39:32;5.72;;;2.70;;
43088;SDS011;28709;52.030;5.652;2023-03-29T00:41:58;4.35;;;2.00;;
43088;SDS011;28709;52.030;5.652;2023-03-29T00:49:54;4.63;;;2.30;;
43088;SDS011;28709;52.030;5.652;2023-03-29T00:52:24;6.80;;;2.42;;
43088;SDS011;28709;52.030;5.652;2023-03-29T00:54:54;3.08;;;2.03;;
43088;SDS011;28709;52.030;5.652;2023-03-29T00:57:22;3.40;;;1.90;;
43088;SDS011;28709;52.030;5.652;2023-03-29T00:59:49;4.93;;;2.17;;
43088;SDS011;28709;52.030;5.652;2023-03-29T01:02:16;3.22;;;2.08;;
43088;SDS011;28709;52.030;5.652;2023-03-29T01:04:48;5.85;;;2.22;;
43088;SDS011;28709;52.030;5.652;2023-03-29T01:12:39;4.38;;;2.10;;
43088;SDS011;28709;52.030;5.652;2023-03-29T01:15:13;7.47;;;2.10;;
43088;SDS011;28709;52.030;5.652;2023-03-29T01:17:43;4.55;;;2.08;;
43088;SDS011;28709;52.030;5.652;2023-03-29T01:20:39;3.22;;;1.95;;
43088;SDS011;28709;52.030;5.652;2023-03-29T01:26:35;3.58;;;2.40;;
43088;SDS011;28709;52.030;5.652;2023-03-29T01:31:25;4.18;;;2.05;;
43088;SDS011;28709;52.030;5.652;2023-03-29T01:33:57;3.85;;;1.92;;
43088;SDS011;28709;52.030;5.652;2023-03-29T01:36:32;8.00;;;2.40;;
43088;SDS011;28709;52.030;5.652;2023-03-29T01:39:07;5.85;;;2.30;;
43088;SDS011;28709;52.030;5.652;2023-03-29T01:44:19;3.95;;;2.08;;
43088;SDS011;28709;52.030;5.652;2023-03-29T01:46:55;5.13;;;2.55;;
43088;SDS011;28709;52.030;5.652;2023-03-29T01:49:35;6.18;;;2.53;;
43088;SDS011;28709;52.030;5.652;2023-03-29T01:52:13;6.30;;;1.90;;
43088;SDS011;28709;52.030;5.652;2023-03-29T01:54:48;5.47;;;2.33;;
43088;SDS011;28709;52.030;5.652;2023-03-29T01:57:20;8.38;;;3.00;;
43088;SDS011;28709;52.030;5.652;2023-03-29T01:59:48;8.93;;;2.25;;
43088;SDS011;28709;52.030;5.652;2023-03-29T02:02:18;9.02;;;2.53;;
43088;SDS011;28709;52.030;5.652;2023-03-29T02:04:46;7.55;;;2.28;;
43088;SDS011;28709;52.030;5.652;2023-03-29T02:07:18;6.05;;;2.50;;
43088;SDS011;28709;52.030;5.652;2023-03-29T02:09:48;7.50;;;2.78;;
43088;SDS011;28709;52.030;5.652;2023-03-29T02:12:17;3.72;;;2.10;;
43088;SDS011;28709;52.030;5.652;2023-03-29T02:14:43;5.35;;;2.00;;
43088;SDS011;28709;52.030;5.652;2023-03-29T02:17:25;4.15;;;2.17;;
43088;SDS011;28709;52.030;5.652;2023-03-29T02:20:02;10.43;;;3.13;;
43088;SDS011;28709;52.030;5.652;2023-03-29T02:25:10;5.22;;;2.28;;
43088;SDS011;28709;52.030;5.652;2023-03-29T02:27:37;4.47;;;2.47;;
43088;SDS011;28709;52.030;5.652;2023-03-29T02:30:06;4.45;;;2.10;;
43088;SDS011;28709;52.030;5.652;2023-03-29T02:32:43;7.78;;;3.00;;
43088;SDS011;28709;52.030;5.652;2023-03-29T02:35:26;7.68;;;2.30;;
43088;SDS011;28709;52.030;5.652;2023-03-29T02:38:00;4.65;;;2.40;;
43088;SDS011;28709;52.030;5.652;2023-03-29T02:40:28;4.97;;;2.85;;
43088;SDS011;28709;52.030;5.652;2023-03-29T02:42:57;5.85;;;2.58;;
43088;SDS011;28709;52.030;5.652;2023-03-29T02:45:25;7.93;;;2.92;;
43088;SDS011;28709;52.030;5.652;2023-03-29T02:47:54;3.70;;;2.55;;
43088;SDS011;28709;52.030;5.652;2023-03-29T02:50:25;5.15;;;2.50;;
43088;SDS011;28709;52.030;5.652;2023-03-29T02:52:57;7.60;;;2.65;;
43088;SDS011;28709;52.030;5.652;2023-03-29T02:55:26;6.00;;;2.97;;
43088;SDS011;28709;52.030;5.652;2023-03-29T02:58:02;6.22;;;2.50;;
43088;SDS011;28709;52.030;5.652;2023-03-29T03:00:32;5.60;;;2.92;;
43088;SDS011;28709;52.030;5.652;2023-03-29T03:03:06;6.88;;;2.78;;
43088;SDS011;28709;52.030;5.652;2023-03-29T03:05:33;6.15;;;3.08;;
43088;SDS011;28709;52.030;5.652;2023-03-29T03:08:00;6.65;;;2.97;;
43088;SDS011;28709;52.030;5.652;2023-03-29T03:10:26;6.15;;;2.60;;
43088;SDS011;28709;52.030;5.652;2023-03-29T03:12:52;8.48;;;3.08;;
43088;SDS011;28709;52.030;5.652;2023-03-29T03:15:18;4.57;;;2.40;;
43088;SDS011;28709;52.030;5.652;2023-03-29T03:17:44;10.30;;;2.90;;
43088;SDS011;28709;52.030;5.652;2023-03-29T03:20:11;7.78;;;2.63;;
43088;SDS011;28709;52.030;5.652;2023-03-29T03:22:41;7.45;;;2.90;;
43088;SDS011;28709;52.030;5.652;2023-03-29T03:25:09;6.57;;;2.50;;
43088;SDS011;28709;52.030;5.652;2023-03-29T03:27:35;7.75;;;2.97;;
43088;SDS011;28709;52.030;5.652;2023-03-29T03:30:02;7.32;;;2.80;;
43088;SDS011;28709;52.030;5.652;2023-03-29T03:32:29;8.57;;;3.75;;
43088;SDS011;28709;52.030;5.652;2023-03-29T03:34:56;6.63;;;3.10;;
43088;SDS011;28709;52.030;5.652;2023-03-29T03:37:23;9.10;;;3.08;;
43088;SDS011;28709;52.030;5.652;2023-03-29T03:39:48;5.00;;;2.78;;
43088;SDS011;28709;52.030;5.652;2023-03-29T03:42:14;10.15;;;2.95;;
43088;SDS011;28709;52.030;5.652;2023-03-29T03:44:40;6.00;;;2.58;;
43088;SDS011;28709;52.030;5.652;2023-03-29T03:47:06;5.13;;;2.95;;
43088;SDS011;28709;52.030;5.652;2023-03-29T03:49:32;7.13;;;2.72;;
43088;SDS011;28709;52.030;5.652;2023-03-29T03:51:57;9.13;;;2.88;;
43088;SDS011;28709;52.030;5.652;2023-03-29T03:54:23;7.40;;;3.10;;
43088;SDS011;28709;52.030;5.652;2023-03-29T03:56:49;6.30;;;3.33;;
43088;SDS011;28709;52.030;5.652;2023-03-29T03:59:15;7.35;;;2.97;;
43088;SDS011;28709;52.030;5.652;2023-03-29T04:01:41;5.30;;;2.50;;
43088;SDS011;28709;52.030;5.652;2023-03-29T04:04:10;7.03;;;2.95;;
43088;SDS011;28709;52.030;5.652;2023-03-29T04:06:36;7.30;;;2.88;;
43088;SDS011;28709;52.030;5.652;2023-03-29T04:09:02;10.82;;;3.25;;
43088;SDS011;28709;52.030;5.652;2023-03-29T04:11:29;9.90;;;3.20;;
43088;SDS011;28709;52.030;5.652;2023-03-29T04:13:54;8.30;;;2.58;;
43088;SDS011;28709;52.030;5.652;2023-03-29T04:16:21;5.03;;;2.83;;
43088;SDS011;28709;52.030;5.652;2023-03-29T04:18:47;3.78;;;2.50;;
43088;SDS011;28709;52.030;5.652;2023-03-29T04:21:13;7.97;;;3.08;;
43088;SDS011;28709;52.030;5.652;2023-03-29T04:23:39;6.70;;;2.55;;
43088;SDS011;28709;52.030;5.652;2023-03-29T04:26:07;9.88;;;3.17;;
43088;SDS011;28709;52.030;5.652;2023-03-29T04:28:33;7.32;;;2.90;;
43088;SDS011;28709;52.030;5.652;2023-03-29T04:30:59;10.05;;;2.67;;
43088;SDS011;28709;52.030;5.652;2023-03-29T04:33:25;6.65;;;2.83;;
43088;SDS011;28709;52.030;5.652;2023-03-29T04:35:52;6.25;;;2.78;;
43088;SDS011;28709;52.030;5.652;2023-03-29T04:38:18;10.43;;;2.75;;
43088;SDS011;28709;52.030;5.652;2023-03-29T04:40:47;6.45;;;2.88;;
43088;SDS011;28709;52.030;5.652;2023-03-29T04:43:14;4.43;;;2.10;;
43088;SDS011;28709;52.030;5.652;2023-03-29T04:45:39;7.22;;;2.78;;
43088;SDS011;28709;52.030;5.652;2023-03-29T04:48:05;4.70;;;2.60;;
43088;SDS011;28709;52.030;5.652;2023-03-29T04:50:31;7.10;;;3.13;;
43088;SDS011;28709;52.030;5.652;2023-03-29T04:52:57;9.38;;;3.00;;
43088;SDS011;28709;52.030;5.652;2023-03-29T04:55:24;4.90;;;2.80;;
43088;SDS011;28709;52.030;5.652;2023-03-29T04:57:50;3.95;;;2.30;;
43088;SDS011;28709;52.030;5.652;2023-03-29T05:00:17;6.35;;;2.72;;
43088;SDS011;28709;52.030;5.652;2023-03-29T05:02:44;11.10;;;2.88;;
43088;SDS011;28709;52.030;5.652;2023-03-29T05:05:11;7.78;;;2.95;;
43088;SDS011;28709;52.030;5.652;2023-03-29T05:07:37;7.95;;;2.67;;
43088;SDS011;28709;52.030;5.652;2023-03-29T05:10:03;9.20;;;3.03;;
43088;SDS011;28709;52.030;5.652;2023-03-29T05:12:30;3.35;;;2.17;;
43088;SDS011;28709;52.030;5.652;2023-03-29T05:14:56;4.15;;;2.50;;
43088;SDS011;28709;52.030;5.652;2023-03-29T05:17:22;3.42;;;2.20;;
43088;SDS011;28709;52.030;5.652;2023-03-29T05:19:51;8.52;;;2.45;;
43088;SDS011;28709;52.030;5.652;2023-03-29T05:22:18;7.38;;;2.13;;
43088;SDS011;28709;52.030;5.652;2023-03-29T05:24:45;6.18;;;2.67;;
43088;SDS011;28709;52.030;5.652;2023-03-29T05:27:11;6.03;;;2.72;;
43088;SDS011;28709;52.030;5.652;2023-03-29T05:29:37;4.63;;;2.50;;
43088;SDS011;28709;52.030;5.652;2023-03-29T05:32:03;6.57;;;2.75;;
43088;SDS011;28709;52.030;5.652;2023-03-29T05:34:29;10.40;;;3.08;;
43088;SDS011;28709;52.030;5.652;2023-03-29T05:36:55;3.97;;;2.22;;
43088;SDS011;28709;52.030;5.652;2023-03-29T05:39:23;6.75;;;3.17;;
43088;SDS011;28709;52.030;5.652;2023-03-29T05:41:48;6.20;;;3.05;;
43088;SDS011;28709;52.030;5.652;2023-03-29T05:44:14;9.43;;;2.72;;
43088;SDS011;28709;52.030;5.652;2023-03-29T05:46:41;5.57;;;2.10;;
43088;SDS011;28709;52.030;5.652;2023-03-29T05:49:06;8.35;;;2.35;;
43088;SDS011;28709;52.030;5.652;2023-03-29T05:51:32;5.30;;;2.15;;
43088;SDS011;28709;52.030;5.652;2023-03-29T05:53:59;6.90;;;2.88;;
43088;SDS011;28709;52.030;5.652;2023-03-29T05:56:25;8.25;;;2.90;;
43088;SDS011;28709;52.030;5.652;2023-03-29T05:58:54;4.65;;;2.40;;
43088;SDS011;28709;52.030;5.652;2023-03-29T06:01:21;4.57;;;2.13;;
43088;SDS011;28709;52.030;5.652;2023-03-29T06:03:48;10.82;;;2.78;;
43088;SDS011;28709;52.030;5.652;2023-03-29T06:06:14;8.93;;;2.70;;
43088;SDS011;28709;52.030;5.652;2023-03-29T06:08:40;6.00;;;2.58;;
43088;SDS011;28709;52.030;5.652;2023-03-29T06:11:07;7.55;;;3.03;;
43088;SDS011;28709;52.030;5.652;2023-03-29T06:13:34;8.65;;;2.88;;
43088;SDS011;28709;52.030;5.652;2023-03-29T06:16:01;13.27;;;3.08;;
43088;SDS011;28709;52.030;5.652;2023-03-29T06:18:28;5.60;;;2.75;;
43088;SDS011;28709;52.030;5.652;2023-03-29T06:20:54;5.45;;;2.55;;
43088;SDS011;28709;52.030;5.652;2023-03-29T06:23:20;5.93;;;2.80;;
43088;SDS011;28709;52.030;5.652;2023-03-29T06:25:46;7.32;;;2.80;;
43088;SDS011;28709;52.030;5.652;2023-03-29T06:28:13;4.85;;;2.65;;
43088;SDS011;28709;52.030;5.652;2023-03-29T06:30:39;4.70;;;2.22;;
43088;SDS011;28709;52.030;5.652;2023-03-29T06:33:06;4.80;;;2.45;;
43088;SDS011;28709;52.030;5.652;2023-03-29T06:35:33;5.75;;;2.35;;
43088;SDS011;28709;52.030;5.652;2023-03-29T06:38:00;6.65;;;3.03;;
43088;SDS011;28709;52.030;5.652;2023-03-29T06:40:27;7.97;;;3.08;;
43088;SDS011;28709;52.030;5.652;2023-03-29T06:42:56;9.18;;;3.38;;
43088;SDS011;28709;52.030;5.652;2023-03-29T06:45:25;5.60;;;2.83;;
43088;SDS011;28709;52.030;5.652;2023-03-29T06:47:52;7.25;;;3.17;;
43088;SDS011;28709;52.030;5.652;2023-03-29T06:50:18;5.60;;;2.50;;
43088;SDS011;28709;52.030;5.652;2023-03-29T06:52:45;9.40;;;3.75;;
43088;SDS011;28709;52.030;5.652;2023-03-29T06:55:11;8.63;;;3.35;;
43088;SDS011;28709;52.030;5.652;2023-03-29T06:57:37;4.93;;;2.85;;
43088;SDS011;28709;52.030;5.652;2023-03-29T07:00:07;8.32;;;3.55;;
43088;SDS011;28709;52.030;5.652;2023-03-29T07:02:38;8.45;;;3.30;;
43088;SDS011;28709;52.030;5.652;2023-03-29T07:05:05;8.25;;;3.78;;
43088;SDS011;28709;52.030;5.652;2023-03-29T07:07:35;6.10;;;3.10;;
43088;SDS011;28709;52.030;5.652;2023-03-29T07:10:27;6.72;;;3.53;;
43088;SDS011;28709;52.030;5.652;2023-03-29T07:12:56;8.43;;;3.20;;
43088;SDS011;28709;52.030;5.652;2023-03-29T07:15:24;6.38;;;3.28;;
43088;SDS011;28709;52.030;5.652;2023-03-29T07:17:51;7.22;;;3.33;;
43088;SDS011;28709;52.030;5.652;2023-03-29T07:20:17;6.82;;;2.88;;
43088;SDS011;28709;52.030;5.652;2023-03-29T07:22:43;7.90;;;3.53;;
43088;SDS011;28709;52.030;5.652;2023-03-29T07:25:11;6.88;;;3.28;;
43088;SDS011;28709;52.030;5.652;2023-03-29T07:27:37;7.75;;;3.30;;
43088;SDS011;28709;52.030;5.652;2023-03-29T07:30:05;9.18;;;3.42;;
43088;SDS011;28709;52.030;5.652;2023-03-29T07:32:38;6.63;;;2.92;;
43088;SDS011;28709;52.030;5.652;2023-03-29T07:35:06;6.88;;;3.20;;
43088;SDS011;28709;52.030;5.652;2023-03-29T07:37:33;9.63;;;3.45;;
43088;SDS011;28709;52.030;5.652;2023-03-29T07:40:00;16.00;;;4.22;;
43088;SDS011;28709;52.030;5.652;2023-03-29T07:42:28;5.82;;;3.20;;
43088;SDS011;28709;52.030;5.652;2023-03-29T07:44:54;6.82;;;3.85;;
43088;SDS011;28709;52.030;5.652;2023-03-29T07:47:20;7.20;;;2.90;;
43088;SDS011;28709;52.030;5.652;2023-03-29T07:49:46;5.90;;;2.88;;
43088;SDS011;28709;52.030;5.652;2023-03-29T07:52:11;6.93;;;3.22;;
43088;SDS011;28709;52.030;5.652;2023-03-29T07:54:37;5.53;;;3.20;;
43088;SDS011;28709;52.030;5.652;2023-03-29T07:57:03;7.32;;;3.63;;
43088;SDS011;28709;52.030;5.652;2023-03-29T07:59:29;11.65;;;3.80;;
43088;SDS011;28709;52.030;5.652;2023-03-29T08:01:55;6.60;;;3.28;;
43088;SDS011;28709;52.030;5.652;2023-03-29T08:04:21;5.18;;;3.22;;
43088;SDS011;28709;52.030;5.652;2023-03-29T08:06:46;8.25;;;3.88;;
43088;SDS011;28709;52.030;5.652;2023-03-29T08:09:13;9.57;;;3.92;;
43088;SDS011;28709;52.030;5.652;2023-03-29T08:11:38;11.63;;;4.30;;
43088;SDS011;28709;52.030;5.652;2023-03-29T08:14:05;5.88;;;3.67;;
43088;SDS011;28709;52.030;5.652;2023-03-29T08:16:31;8.45;;;3.97;;
43088;SDS011;28709;52.030;5.652;2023-03-29T08:18:57;9.48;;;4.45;;
43088;SDS011;28709;52.030;5.652;2023-03-29T08:21:23;11.48;;;4.43;;
43088;SDS011;28709;52.030;5.652;2023-03-29T08:23:49;11.70;;;3.90;;
43088;SDS011;28709;52.030;5.652;2023-03-29T08:26:15;11.05;;;4.40;;
43088;SDS011;28709;52.030;5.652;2023-03-29T08:28:41;13.77;;;4.45;;
43088;SDS011;28709;52.030;5.652;2023-03-29T08:31:07;10.35;;;4.20;;
43088;SDS011;28709;52.030;5.652;2023-03-29T08:33:36;10.88;;;4.05;;
43088;SDS011;28709;52.030;5.652;2023-03-29T08:36:01;14.65;;;4.75;;
43088;SDS011;28709;52.030;5.652;2023-03-29T08:38:28;9.00;;;4.20;;
43088;SDS011;28709;52.030;5.652;2023-03-29T08:40:54;9.02;;;5.07;;
43088;SDS011;28709;52.030;5.652;2023-03-29T08:49:06;9.60;;;4.13;;
43088;SDS011;28709;52.030;5.652;2023-03-29T08:51:44;8.90;;;4.55;;
43088;SDS011;28709;52.030;5.652;2023-03-29T08:54:19;10.05;;;4.63;;
43088;SDS011;28709;52.030;5.652;2023-03-29T08:56:49;10.02;;;4.70;;
43088;SDS011;28709;52.030;5.652;2023-03-29T09:01:46;10.77;;;5.43;;
43088;SDS011;28709;52.030;5.652;2023-03-29T09:04:18;9.43;;;5.03;;
43088;SDS011;28709;52.030;5.652;2023-03-29T09:06:49;9.35;;;5.15;;
43088;SDS011;28709;52.030;5.652;2023-03-29T09:09:16;13.43;;;5.38;;
43088;SDS011;28709;52.030;5.652;2023-03-29T09:30:41;10.65;;;6.15;;
43088;SDS011;28709;52.030;5.652;2023-03-29T09:33:12;12.30;;;6.22;;
43088;SDS011;28709;52.030;5.652;2023-03-29T09:38:33;9.82;;;5.88;;
43088;SDS011;28709;52.030;5.652;2023-03-29T09:41:04;13.20;;;5.95;;
43088;SDS011;28709;52.030;5.652;2023-03-29T09:43:42;11.20;;;6.25;;
43088;SDS011;28709;52.030;5.652;2023-03-29T09:46:12;10.27;;;6.28;;
43088;SDS011;28709;52.030;5.652;2023-03-29T09:48:43;15.70;;;6.32;;
43088;SDS011;28709;52.030;5.652;2023-03-29T09:51:10;13.05;;;5.95;;
43088;SDS011;28709;52.030;5.652;2023-03-29T09:53:38;7.78;;;5.82;;
43088;SDS011;28709;52.030;5.652;2023-03-29T09:56:04;11.68;;;5.90;;
43088;SDS011;28709;52.030;5.652;2023-03-29T09:58:30;11.18;;;6.85;;
43088;SDS011;28709;52.030;5.652;2023-03-29T10:00:57;10.65;;;5.70;;
43088;SDS011;28709;52.030;5.652;2023-03-29T10:03:29;12.15;;;6.03;;
43088;SDS011;28709;52.030;5.652;2023-03-29T10:05:58;10.85;;;5.53;;
43088;SDS011;28709;52.030;5.652;2023-03-29T10:10:55;9.93;;;5.82;;
43088;SDS011;28709;52.030;5.652;2023-03-29T10:13:26;9.02;;;5.45;;
43088;SDS011;28709;52.030;5.652;2023-03-29T10:20:59;8.70;;;5.30;;
43088;SDS011;28709;52.030;5.652;2023-03-29T10:23:34;10.95;;;5.63;;
43088;SDS011;28709;52.030;5.652;2023-03-29T10:28:29;11.50;;;5.63;;
43088;SDS011;28709;52.030;5.652;2023-03-29T10:30:56;8.48;;;5.68;;
43088;SDS011;28709;52.030;5.652;2023-03-29T10:33:26;9.82;;;4.80;;
43088;SDS011;28709;52.030;5.652;2023-03-29T10:35:58;11.90;;;5.13;;
43088;SDS011;28709;52.030;5.652;2023-03-29T10:38:27;11.02;;;5.50;;
43088;SDS011;28709;52.030;5.652;2023-03-29T10:41:00;13.90;;;5.60;;
43088;SDS011;28709;52.030;5.652;2023-03-29T10:43:36;8.95;;;5.78;;
43088;SDS011;28709;52.030;5.652;2023-03-29T10:46:10;11.35;;;6.30;;
43088;SDS011;28709;52.030;5.652;2023-03-29T10:48:48;13.02;;;7.25;;
43088;SDS011;28709;52.030;5.652;2023-03-29T10:51:16;11.02;;;6.75;;
43088;SDS011;28709;52.030;5.652;2023-03-29T10:53:43;11.18;;;6.90;;
43088;SDS011;28709;52.030;5.652;2023-03-29T10:56:12;10.05;;;5.65;;
43088;SDS011;28709;52.030;5.652;2023-03-29T10:59:15;8.00;;;5.88;;
43088;SDS011;28709;52.030;5.652;2023-03-29T11:14:59;13.30;;;6.47;;
43088;SDS011;28709;52.030;5.652;2023-03-29T11:28:58;10.32;;;5.93;;
43088;SDS011;28709;52.030;5.652;2023-03-29T11:31:53;9.88;;;5.40;;
43088;SDS011;28709;52.030;5.652;2023-03-29T11:34:59;8.80;;;5.82;;
43088;SDS011;28709;52.030;5.652;2023-03-29T11:43:27;11.40;;;5.75;;
43088;SDS011;28709;52.030;5.652;2023-03-29T11:48:33;14.27;;;7.60;;
43088;SDS011;28709;52.030;5.652;2023-03-29T11:53:45;11.93;;;6.60;;
43088;SDS011;28709;52.030;5.652;2023-03-29T11:56:32;11.27;;;6.38;;
43088;SDS011;28709;52.030;5.652;2023-03-29T11:59:33;12.13;;;6.68;;
43088;SDS011;28709;52.030;5.652;2023-03-29T12:10:36;15.45;;;6.53;;
43088;SDS011;28709;52.030;5.652;2023-03-29T12:13:08;16.00;;;7.75;;
43088;SDS011;28709;52.030;5.652;2023-03-29T12:16:13;12.40;;;7.20;;
43088;SDS011;28709;52.030;5.652;2023-03-29T12:18:45;16.40;;;7.57;;
43088;SDS011;28709;52.030;5.652;2023-03-29T12:21:15;12.93;;;6.32;;
43088;SDS011;28709;52.030;5.652;2023-03-29T12:23:44;11.27;;;6.55;;
43088;SDS011;28709;52.030;5.652;2023-03-29T12:34:50;13.50;;;8.90;;
43088;SDS011;28709;52.030;5.652;2023-03-29T12:37:36;11.82;;;7.22;;
43088;SDS011;28709;52.030;5.652;2023-03-29T12:40:26;15.85;;;8.35;;
43088;SDS011;28709;52.030;5.652;2023-03-29T12:43:03;13.63;;;7.38;;
43088;SDS011;28709;52.030;5.652;2023-03-29T12:45:39;14.30;;;8.07;;
43088;SDS011;28709;52.030;5.652;2023-03-29T12:48:19;12.40;;;8.10;;
43088;SDS011;28709;52.030;5.652;2023-03-29T12:53:29;14.68;;;8.27;;
43088;SDS011;28709;52.030;5.652;2023-03-29T12:56:07;10.80;;;7.43;;
43088;SDS011;28709;52.030;5.652;2023-03-29T12:58:42;12.70;;;8.15;;
43088;SDS011;28709;52.030;5.652;2023-03-29T13:09:02;15.32;;;7.20;;
43088;SDS011;28709;52.030;5.652;2023-03-29T13:11:56;10.23;;;6.07;;
43088;SDS011;28709;52.030;5.652;2023-03-29T13:14:34;13.15;;;6.57;;
43088;SDS011;28709;52.030;5.652;2023-03-29T13:17:05;13.32;;;6.40;;
43088;SDS011;28709;52.030;5.652;2023-03-29T13:20:10;15.00;;;7.30;;
43088;SDS011;28709;52.030;5.652;2023-03-29T13:31:55;12.48;;;7.25;;
43088;SDS011;28709;52.030;5.652;2023-03-29T13:39:49;16.42;;;7.70;;
43088;SDS011;28709;52.030;5.652;2023-03-29T13:42:18;12.90;;;7.47;;
43088;SDS011;28709;52.030;5.652;2023-03-29T13:44:45;11.57;;;7.38;;
43088;SDS011;28709;52.030;5.652;2023-03-29T13:49:58;10.13;;;7.33;;
43088;SDS011;28709;52.030;5.652;2023-03-29T13:52:35;12.27;;;7.00;;
43088;SDS011;28709;52.030;5.652;2023-03-29T13:55:13;11.50;;;7.43;;
43088;SDS011;28709;52.030;5.652;2023-03-29T14:00:09;11.70;;;6.95;;
43088;SDS011;28709;52.030;5.652;2023-03-29T14:05:14;15.00;;;7.68;;
43088;SDS011;28709;52.030;5.652;2023-03-29T14:07:47;12.98;;;6.28;;
43088;SDS011;28709;52.030;5.652;2023-03-29T14:10:20;12.63;;;7.60;;
43088;SDS011;28709;52.030;5.652;2023-03-29T14:12:51;11.23;;;6.75;;
43088;SDS011;28709;52.030;5.652;2023-03-29T14:15:22;9.88;;;5.78;;
43088;SDS011;28709;52.030;5.652;2023-03-29T14:17:52;16.23;;;7.15;;
43088;SDS011;28709;52.030;5.652;2023-03-29T14:20:21;12.75;;;6.35;;
43088;SDS011;28709;52.030;5.652;2023-03-29T14:22:48;10.80;;;6.03;;
43088;SDS011;28709;52.030;5.652;2023-03-29T14:25:15;8.82;;;6.28;;
43088;SDS011;28709;52.030;5.652;2023-03-29T14:27:42;11.05;;;6.00;;
43088;SDS011;28709;52.030;5.652;2023-03-29T14:30:18;8.13;;;5.32;;
43088;SDS011;28709;52.030;5.652;2023-03-29T14:32:53;8.82;;;5.70;;
43088;SDS011;28709;52.030;5.652;2023-03-29T14:35:25;12.48;;;6.00;;
43088;SDS011;28709;52.030;5.652;2023-03-29T14:37:53;10.95;;;6.07;;
43088;SDS011;28709;52.030;5.652;2023-03-29T14:40:19;8.32;;;5.38;;
43088;SDS011;28709;52.030;5.652;2023-03-29T14:42:46;10.30;;;5.70;;
43088;SDS011;28709;52.030;5.652;2023-03-29T14:45:14;10.85;;;5.80;;
43088;SDS011;28709;52.030;5.652;2023-03-29T14:47:41;10.80;;;6.28;;
43088;SDS011;28709;52.030;5.652;2023-03-29T14:50:15;8.90;;;5.65;;
43088;SDS011;28709;52.030;5.652;2023-03-29T14:52:43;10.75;;;5.47;;
43088;SDS011;28709;52.030;5.652;2023-03-29T14:55:10;12.85;;;5.82;;
43088;SDS011;28709;52.030;5.652;2023-03-29T14:57:38;10.90;;;4.93;;
43088;SDS011;28709;52.030;5.652;2023-03-29T15:00:15;9.45;;;5.85;;
43088;SDS011;28709;52.030;5.652;2023-03-29T15:02:55;9.68;;;5.35;;
43088;SDS011;28709;52.030;5.652;2023-03-29T15:05:34;11.80;;;5.40;;
43088;SDS011;28709;52.030;5.652;2023-03-29T15:08:03;9.88;;;4.95;;
43088;SDS011;28709;52.030;5.652;2023-03-29T15:10:32;9.45;;;5.07;;
43088;SDS011;28709;52.030;5.652;2023-03-29T15:13:00;15.07;;;6.65;;
43088;SDS011;28709;52.030;5.652;2023-03-29T15:15:27;6.68;;;4.55;;
43088;SDS011;28709;52.030;5.652;2023-03-29T15:17:55;9.63;;;4.72;;
43088;SDS011;28709;52.030;5.652;2023-03-29T15:20:26;7.45;;;4.15;;
43088;SDS011;28709;52.030;5.652;2023-03-29T15:23:00;6.95;;;4.53;;
43088;SDS011;28709;52.030;5.652;2023-03-29T15:25:37;8.15;;;5.00;;
43088;SDS011;28709;52.030;5.652;2023-03-29T15:28:21;7.88;;;4.32;;
43088;SDS011;28709;52.030;5.652;2023-03-29T15:30:55;8.57;;;4.50;;
43088;SDS011;28709;52.030;5.652;2023-03-29T15:33:23;9.40;;;3.92;;
43088;SDS011;28709;52.030;5.652;2023-03-29T15:35:55;8.05;;;3.92;;
43088;SDS011;28709;52.030;5.652;2023-03-29T15:38:21;8.70;;;4.60;;
43088;SDS011;28709;52.030;5.652;2023-03-29T15:40:47;6.72;;;4.20;;
43088;SDS011;28709;52.030;5.652;2023-03-29T15:43:12;6.18;;;3.25;;
43088;SDS011;28709;52.030;5.652;2023-03-29T15:45:38;6.30;;;3.75;;
43088;SDS011;28709;52.030;5.652;2023-03-29T15:48:11;7.65;;;3.60;;
43088;SDS011;28709;52.030;5.652;2023-03-29T15:50:39;9.48;;;3.33;;
43088;SDS011;28709;52.030;5.652;2023-03-29T15:53:06;9.35;;;3.70;;
43088;SDS011;28709;52.030;5.652;2023-03-29T15:55:32;6.60;;;3.03;;
43088;SDS011;28709;52.030;5.652;2023-03-29T15:57:57;6.80;;;3.53;;
43088;SDS011;28709;52.030;5.652;2023-03-29T16:00:23;6.80;;;3.60;;
43088;SDS011;28709;52.030;5.652;2023-03-29T16:02:49;7.72;;;3.60;;
43088;SDS011;28709;52.030;5.652;2023-03-29T16:05:15;8.70;;;3.20;;
43088;SDS011;28709;52.030;5.652;2023-03-29T16:07:41;6.32;;;3.63;;
43088;SDS011;28709;52.030;5.652;2023-03-29T16:10:07;7.50;;;3.63;;
43088;SDS011;28709;52.030;5.652;2023-03-29T16:12:34;5.28;;;3.22;;
43088;SDS011;28709;52.030;5.652;2023-03-29T16:15:07;8.32;;;3.00;;
43088;SDS011;28709;52.030;5.652;2023-03-29T16:17:39;6.55;;;3.70;;
43088;SDS011;28709;52.030;5.652;2023-03-29T16:20:05;6.25;;;3.22;;
43088;SDS011;28709;52.030;5.652;2023-03-29T16:22:32;7.38;;;3.55;;
43088;SDS011;28709;52.030;5.652;2023-03-29T16:24:58;9.75;;;2.97;;
43088;SDS011;28709;52.030;5.652;2023-03-29T16:27:24;7.10;;;3.40;;
43088;SDS011;28709;52.030;5.652;2023-03-29T16:29:50;6.55;;;3.38;;
43088;SDS011;28709;52.030;5.652;2023-03-29T16:32:15;6.07;;;3.63;;
43088;SDS011;28709;52.030;5.652;2023-03-29T16:34:41;8.40;;;3.53;;
43088;SDS011;28709;52.030;5.652;2023-03-29T16:37:07;4.50;;;3.03;;
43088;SDS011;28709;52.030;5.652;2023-03-29T16:39:33;5.60;;;3.38;;
43088;SDS011;28709;52.030;5.652;2023-03-29T16:41:58;6.10;;;3.22;;
43088;SDS011;28709;52.030;5.652;2023-03-29T16:44:24;5.90;;;3.22;;
43088;SDS011;28709;52.030;5.652;2023-03-29T16:46:54;6.47;;;3.08;;
43088;SDS011;28709;52.030;5.652;2023-03-29T16:49:22;7.30;;;3.38;;
43088;SDS011;28709;52.030;5.652;2023-03-29T16:51:48;4.97;;;3.05;;
43088;SDS011;28709;52.030;5.652;2023-03-29T16:54:14;5.25;;;2.88;;
43088;SDS011;28709;52.030;5.652;2023-03-29T16:56:43;6.15;;;3.13;;
43088;SDS011;28709;52.030;5.652;2023-03-29T16:59:09;5.05;;;3.03;;
43088;SDS011;28709;52.030;5.652;2023-03-29T17:01:35;8.50;;;3.40;;
43088;SDS011;28709;52.030;5.652;2023-03-29T17:04:02;9.05;;;3.85;;
43088;SDS011;28709;52.030;5.652;2023-03-29T17:06:28;7.43;;;3.00;;
43088;SDS011;28709;52.030;5.652;2023-03-29T17:08:55;5.45;;;2.55;;
43088;SDS011;28709;52.030;5.652;2023-03-29T17:11:22;8.38;;;3.42;;
43088;SDS011;28709;52.030;5.652;2023-03-29T17:13:49;7.25;;;3.40;;
43088;SDS011;28709;52.030;5.652;2023-03-29T17:16:15;4.57;;;3.00;;
43088;SDS011;28709;52.030;5.652;2023-03-29T17:18:41;7.03;;;3.35;;
43088;SDS011;28709;52.030;5.652;2023-03-29T17:21:06;4.55;;;3.00;;
43088;SDS011;28709;52.030;5.652;2023-03-29T17:23:32;6.50;;;3.33;;